Time;durP1;ratioP1;P1;durP2;ratioP2;P2;SDS_P1;SDS_P2;PMS_P1;PMS_P2;Temp;Humidity;BMP_temperature;BMP_pressure;BME280_temperature;BME280_humidity;BME280_pressure;Samples;Min_cycle;Max_cycle;Signal;HPM_P1;HPM_P2
2023/05/29 00:01:25;;;;;;;5.18;2.75;;;;;;;15.88;nan;-24259.94;5030889;28;20219;-69
2023/05/29 00:03:51;;;;;;;3.25;2.28;;;;;;;15.93;nan;-24261.22;5030610;28;20252;-70
2023/05/29 00:06:18;;;;;;;4.18;2.72;;;;;;;15.92;nan;-24260.94;5029728;28;20203;-70
2023/05/29 00:08:44;;;;;;;4.70;3.20;;;;;;;16.27;nan;-24270.72;5030979;28;20689;-69
2023/05/29 00:11:09;;;;;;;3.90;2.72;;;;;;;15.96;nan;-24262.06;5030649;28;20214;-69
2023/05/29 00:13:35;;;;;;;4.50;2.80;;;;;;;15.97;nan;-24262.31;5031522;28;20662;-69
2023/05/29 00:16:00;;;;;;;5.07;2.85;;;;;;;16.20;nan;-24268.63;5030178;28;20566;-69
2023/05/29 00:18:27;;;;;;;5.10;2.83;;;;;;;16.26;nan;-24270.31;5031023;28;20183;-69
2023/05/29 00:20:53;;;;;;;5.80;3.05;;;;;;;16.19;nan;-24268.34;5030584;28;20194;-69
2023/05/29 00:23:19;;;;;;;6.03;3.28;;;;;;;16.23;nan;-24269.47;5030779;28;20183;-69
2023/05/29 00:25:44;;;;;;;4.57;2.90;;;;;;;16.03;nan;-24264.00;5029389;28;20207;-68
2023/05/29 00:28:11;;;;;;;5.70;3.03;;;;;;;16.10;nan;-24265.97;5030754;28;20176;-68
2023/05/29 00:30:37;;;;;;;4.78;3.03;;;;;;;16.25;nan;-24270.03;5031280;28;20285;-69
2023/05/29 00:33:02;;;;;;;5.90;2.83;;;;;;;16.04;nan;-24264.16;5031078;28;20697;-70
2023/05/29 00:35:28;;;;;;;5.80;3.53;;;;;;;15.84;nan;-24258.84;5063070;28;20205;-70
2023/05/29 00:37:53;;;;;;;6.85;3.78;;;;;;;16.13;nan;-24266.81;5062821;28;20187;-69
2023/05/29 00:40:19;;;;;;;5.25;3.28;;;;;;;16.14;nan;-24266.94;5031942;28;20207;-70
2023/05/29 00:42:45;;;;;;;7.53;3.60;;;;;;;15.98;nan;-24262.59;5030396;28;20191;-71
2023/05/29 00:45:10;;;;;;;4.30;3.08;;;;;;;15.56;nan;-24250.84;5030083;28;20237;-70
2023/05/29 00:47:36;;;;;;;6.90;3.80;;;;;;;16.20;nan;-24268.75;5031532;28;20179;-69
2023/05/29 00:50:03;;;;;;;8.02;3.65;;;;;;;16.12;nan;-24266.38;5029646;28;20566;-71
2023/05/29 00:52:29;;;;;;;5.90;3.80;;;;;;;16.24;nan;-24269.88;5031020;28;20673;-69
2023/05/29 00:54:55;;;;;;;8.45;3.30;;;;;;;15.95;nan;-24261.78;5029818;28;20180;-70
2023/05/29 00:57:21;;;;;;;5.35;3.20;;;;;;;16.12;nan;-24266.38;5031409;28;20218;-69
2023/05/29 00:59:47;;;;;;;6.55;3.67;;;;;;;16.15;nan;-24267.22;5035836;28;20302;-68
2023/05/29 01:02:14;;;;;;;5.50;3.30;;;;;;;15.99;nan;-24262.75;5029608;28;20266;-70
2023/05/29 01:04:39;;;;;;;5.20;3.25;;;;;;;16.19;nan;-24268.34;5030507;28;20583;-69
2023/05/29 01:07:06;;;;;;;6.60;3.40;;;;;;;16.22;nan;-24269.19;5031412;28;20183;-69
2023/05/29 01:09:34;;;;;;;6.70;3.65;;;;;;;16.26;nan;-24270.31;5027923;28;20270;-68
2023/05/29 01:12:23;;;;;;;4.60;3.17;;;;;;;16.26;nan;-24270.31;5031463;28;20222;-70
2023/05/29 01:15:04;;;;;;;7.63;3.17;;;;;;;16.27;nan;-24270.59;5030982;28;20180;-69
2023/05/29 01:18:18;;;;;;;5.22;3.50;;;;;;;16.32;nan;-24272.13;5029480;28;20183;-68
2023/05/29 01:20:59;;;;;;;5.90;2.92;;;;;;;16.32;nan;-24271.97;5008011;28;20188;-71
2023/05/29 01:24:09;;;;;;;6.63;3.20;;;;;;;16.40;nan;-24274.22;5006945;28;20231;-70
2023/05/29 01:26:51;;;;;;;4.93;2.90;;;;;;;16.19;nan;-24268.34;4949512;29;20200;-69
2023/05/29 01:29:24;;;;;;;6.72;2.95;;;;;;;16.31;nan;-24271.84;4949782;28;20217;-69
2023/05/29 01:31:52;;;;;;;4.38;3.08;;;;;;;16.27;nan;-24270.72;5007502;28;20188;-69
2023/05/29 01:34:18;;;;;;;4.93;2.67;;;;;;;16.14;nan;-24266.94;5029754;28;20245;-69
2023/05/29 01:36:43;;;;;;;5.30;3.00;;;;;;;16.11;nan;-24266.09;5029465;28;20187;-69
2023/05/29 01:39:10;;;;;;;5.82;3.17;;;;;;;16.41;nan;-24274.34;5032950;28;20206;-69
2023/05/29 01:41:36;;;;;;;5.18;3.20;;;;;;;16.11;nan;-24266.09;5033419;28;20186;-72
2023/05/29 01:44:04;;;;;;;5.28;2.78;;;;;;;16.06;nan;-24264.72;5033032;28;20179;-69
2023/05/29 01:46:30;;;;;;;7.20;3.42;;;;;;;15.98;nan;-24262.59;5032730;28;20229;-70
2023/05/29 01:48:55;;;;;;;4.82;3.10;;;;;;;16.22;nan;-24269.31;5032920;28;20550;-70
2023/05/29 01:51:21;;;;;;;12.43;3.00;;;;;;;16.32;nan;-24271.97;5032916;28;20869;-69
2023/05/29 01:53:47;;;;;;;5.63;3.40;;;;;;;16.36;nan;-24273.09;5033020;28;20207;-70
2023/05/29 01:56:12;;;;;;;3.70;2.78;;;;;;;16.29;nan;-24271.28;5031043;28;20658;-69
2023/05/29 01:58:40;;;;;;;4.60;2.90;;;;;;;16.23;nan;-24269.59;5033641;28;20183;-70
2023/05/29 02:01:06;;;;;;;4.90;2.80;;;;;;;16.30;nan;-24271.41;5039425;28;20413;-69
2023/05/29 02:03:32;;;;;;;3.97;2.80;;;;;;;16.09;nan;-24265.56;5033302;28;20215;-68
2023/05/29 02:05:59;;;;;;;3.78;2.75;;;;;;;16.27;nan;-24270.59;5033658;28;20245;-68
2023/05/29 02:08:24;;;;;;;5.05;3.05;;;;;;;16.06;nan;-24264.84;5031655;28;20210;-70
2023/05/29 02:10:50;;;;;;;5.68;2.97;;;;;;;15.54;nan;-24250.44;5032212;28;20202;-70
2023/05/29 02:13:16;;;;;;;4.18;2.50;;;;;;;16.12;nan;-24266.53;5033153;28;20183;-70
2023/05/29 02:15:42;;;;;;;5.15;3.25;;;;;;;16.07;nan;-24265.00;5032569;28;20229;-69
2023/05/29 02:18:12;;;;;;;4.70;2.85;;;;;;;15.92;nan;-24260.94;5032723;28;20171;-69
2023/05/29 02:20:38;;;;;;;8.25;3.05;;;;;;;15.97;nan;-24262.19;5029443;28;20175;-69
2023/05/29 02:23:04;;;;;;;3.88;2.88;;;;;;;16.15;nan;-24267.22;5032345;28;20179;-69
2023/05/29 02:25:29;;;;;;;5.05;2.90;;;;;;;16.03;nan;-24263.88;5033684;28;20227;-68
2023/05/29 02:27:55;;;;;;;4.75;2.72;;;;;;;15.87;nan;-24259.53;5032527;28;20202;-69
2023/05/29 02:30:20;;;;;;;5.28;2.80;;;;;;;16.11;nan;-24266.09;5032815;28;20199;-69
2023/05/29 02:32:46;;;;;;;4.53;2.70;;;;;;;15.99;nan;-24262.75;5033387;28;20219;-70
2023/05/29 02:35:14;;;;;;;3.97;2.60;;;;;;;16.17;nan;-24267.94;5033335;28;20236;-69
2023/05/29 02:37:43;;;;;;;4.63;3.05;;;;;;;16.11;nan;-24266.25;5031566;28;20175;-70
2023/05/29 02:40:09;;;;;;;3.85;2.83;;;;;;;15.89;nan;-24260.22;5032389;28;20182;-69
2023/05/29 02:42:36;;;;;;;4.13;2.75;;;;;;;16.08;nan;-24265.41;5032715;28;20195;-69
2023/05/29 02:45:01;;;;;;;3.97;2.67;;;;;;;16.21;nan;-24268.91;5031881;28;20260;-68
2023/05/29 02:47:27;;;;;;;3.45;2.38;;;;;;;15.95;nan;-24261.63;5032238;28;20183;-69
2023/05/29 02:49:52;;;;;;;3.88;2.75;;;;;;;15.96;nan;-24261.91;5031964;28;20171;-71
2023/05/29 02:52:18;;;;;;;4.10;2.88;;;;;;;15.95;nan;-24261.63;5033010;28;20224;-70
2023/05/29 02:54:43;;;;;;;4.65;2.83;;;;;;;16.19;nan;-24268.34;5032299;28;20167;-69
2023/05/29 02:57:09;;;;;;;3.80;2.70;;;;;;;16.29;nan;-24271.13;5031991;28;20172;-70
2023/05/29 02:59:35;;;;;;;4.35;2.55;;;;;;;16.08;nan;-24265.28;5032171;28;20258;-69
2023/05/29 03:02:00;;;;;;;6.60;2.60;;;;;;;16.01;nan;-24263.31;5037855;28;20238;-68
2023/05/29 03:04:27;;;;;;;4.90;2.60;;;;;;;15.98;nan;-24262.47;5032639;28;20302;-70
2023/05/29 03:06:53;;;;;;;7.38;2.80;;;;;;;16.22;nan;-24269.19;5032885;28;20179;-69
2023/05/29 03:09:19;;;;;;;3.78;2.60;;;;;;;16.22;nan;-24269.19;5032421;28;20625;-70
2023/05/29 03:11:44;;;;;;;5.28;2.75;;;;;;;15.29;nan;-24243.44;5032372;28;20175;-69
2023/05/29 03:14:10;;;;;;;4.10;2.80;;;;;;;15.96;nan;-24261.91;5031358;28;20202;-70
2023/05/29 03:16:35;;;;;;;4.85;3.17;;;;;;;16.06;nan;-24264.84;5031970;28;20498;-71
2023/05/29 03:19:01;;;;;;;4.45;2.90;;;;;;;16.06;nan;-24264.84;5031186;28;20229;-69
2023/05/29 03:21:27;;;;;;;4.40;2.58;;;;;;;16.12;nan;-24266.53;5032736;28;20202;-69
2023/05/29 03:23:52;;;;;;;5.00;2.97;;;;;;;16.24;nan;-24269.88;5030692;28;20264;-70
2023/05/29 03:26:17;;;;;;;4.10;2.67;;;;;;;16.33;nan;-24272.41;5030355;28;20697;-69
2023/05/29 03:28:43;;;;;;;3.67;2.67;;;;;;;16.42;nan;-24274.63;5031899;28;20179;-70
2023/05/29 03:31:08;;;;;;;4.05;2.95;;;;;;;16.08;nan;-24265.28;5031002;28;20603;-69
2023/05/29 03:33:35;;;;;;;4.20;2.88;;;;;;;16.31;nan;-24271.84;5031893;28;20190;-69
2023/05/29 03:36:01;;;;;;;5.07;2.67;;;;;;;16.38;nan;-24273.66;5030582;28;20665;-70
2023/05/29 03:38:26;;;;;;;4.38;2.88;;;;;;;16.34;nan;-24272.53;5030196;28;20187;-69
2023/05/29 03:40:52;;;;;;;4.53;2.85;;;;;;;16.38;nan;-24273.50;5030924;28;20233;-69
2023/05/29 03:43:17;;;;;;;5.38;3.00;;;;;;;16.03;nan;-24264.00;5030720;28;20650;-70
2023/05/29 03:45:42;;;;;;;5.20;2.78;;;;;;;16.35;nan;-24272.97;5031042;28;20218;-71
2023/05/29 03:48:08;;;;;;;7.00;4.20;;;;;;;16.18;nan;-24268.22;5031342;28;20258;-68
2023/05/29 03:50:33;;;;;;;6.40;3.35;;;;;;;16.28;nan;-24271.00;5031569;28;20179;-70
2023/05/29 03:52:59;;;;;;;5.63;3.13;;;;;;;16.19;nan;-24268.47;5031629;28;20195;-69
2023/05/29 03:55:26;;;;;;;4.82;2.90;;;;;;;16.12;nan;-24266.38;5031843;28;20194;-68
2023/05/29 03:57:52;;;;;;;7.90;3.10;;;;;;;16.11;nan;-24266.25;5032697;28;20179;-70
2023/05/29 04:00:18;;;;;;;7.95;3.58;;;;;;;16.22;nan;-24269.31;5030311;28;20229;-70
2023/05/29 04:02:43;;;;;;;4.90;2.95;;;;;;;16.03;nan;-24264.00;5032692;28;20631;-70
2023/05/29 04:05:08;;;;;;;3.88;2.90;;;;;;;16.12;nan;-24266.38;5035176;28;20409;-69
2023/05/29 04:07:36;;;;;;;4.65;3.33;;;;;;;16.42;nan;-24274.78;5031837;28;20256;-71
2023/05/29 04:10:02;;;;;;;6.90;3.30;;;;;;;16.16;nan;-24265.75;5062138;28;20187;-69
2023/05/29 04:12:27;;;;;;;6.53;2.97;;;;;;;16.47;nan;-23952.47;5031889;28;20259;-69
2023/05/29 04:14:52;;;;;;;4.93;3.28;;;;;;;16.10;nan;-23621.09;5032411;28;20175;-70
2023/05/29 04:17:18;;;;;;;6.10;3.00;;;;;;;16.55;nan;-22989.50;5030775;28;20266;-69
2023/05/29 04:19:43;;;;;;;4.65;3.03;;;;;;;16.25;nan;-23625.00;5032218;28;20270;-69
2023/05/29 04:22:09;;;;;;;7.38;3.17;;;;;;;16.48;nan;-23952.75;5031216;28;20183;-71
2023/05/29 04:24:35;;;;;;;5.72;3.10;;;;;;;16.27;nan;-23947.13;5031782;28;20199;-69
2023/05/29 04:27:01;;;;;;;4.20;3.10;;;;;;;16.39;nan;-23628.63;5031851;28;20254;-70
2023/05/29 04:29:28;;;;;;;4.90;3.22;;;;;;;16.59;nan;-23312.22;5031602;28;20191;-69
2023/05/29 04:31:55;;;;;;;5.78;3.10;;;;;;;16.61;nan;-23312.88;5031839;28;20674;-70
2023/05/29 04:34:21;;;;;;;7.80;3.13;;;;;;;16.53;nan;-22988.97;5023329;28;20192;-71
2023/05/29 04:36:47;;;;;;;5.22;3.13;;;;;;;16.75;nan;-22994.53;5030772;28;20184;-69
2023/05/29 04:39:13;;;;;;;5.00;3.00;;;;;;;16.88;nan;-23641.69;5031977;28;20717;-70
2023/05/29 04:41:42;;;;;;;4.82;3.20;;;;;;;16.62;nan;-23956.75;5031678;28;20682;-70
2023/05/29 04:44:11;;;;;;;5.50;2.78;;;;;;;16.99;nan;-21389.97;5032294;28;20214;-70
2023/05/29 04:46:38;;;;;;;4.88;2.97;;;;;;;15.64;nan;-20715.97;5032010;28;20183;-68
2023/05/29 04:49:04;;;;;;;5.07;3.20;;;;;;;16.90;nan;-21387.88;5031906;28;20171;-69
2023/05/29 04:51:31;;;;;;;6.13;3.25;;;;;;;16.89;nan;-21387.66;5031016;28;20191;-69
2023/05/29 04:53:56;;;;;;;7.55;3.30;;;;;;;16.93;nan;-22032.88;5022433;28;20610;-69
2023/05/29 04:56:22;;;;;;;4.57;2.90;;;;;;;17.22;nan;-22040.03;5022923;28;20200;-71
2023/05/29 04:58:47;;;;;;;4.97;2.78;;;;;;;17.10;nan;-22037.00;5024719;28;20243;-71
2023/05/29 05:01:14;;;;;;;6.38;3.17;;;;;;;17.19;nan;-22039.28;5023346;28;20219;-69
2023/05/29 05:03:43;;;;;;;5.70;2.80;;;;;;;17.19;nan;-21716.91;5021819;28;20233;-68
2023/05/29 05:06:09;;;;;;;4.53;3.10;;;;;;;16.99;nan;-21067.84;5035652;28;20215;-71
2023/05/29 05:08:35;;;;;;;6.80;4.38;;;;;;;16.92;nan;-22032.63;5030231;28;20199;-70
2023/05/29 05:11:02;;;;;;;5.25;3.72;;;;;;;17.10;nan;-20425.69;5031331;28;20611;-70
2023/05/29 05:13:27;;;;;;;8.02;3.90;;;;;;;16.97;nan;-19455.84;5034370;28;20198;-69
2023/05/29 05:15:54;;;;;;;6.72;4.00;;;;;;;16.99;nan;-20101.00;5034906;28;20209;-68
2023/05/29 05:18:19;;;;;;;4.20;3.00;;;;;;;17.00;nan;-18811.47;5033992;28;20337;-69
2023/05/29 05:20:46;;;;;;;5.22;3.08;;;;;;;17.27;nan;-18816.59;5035039;28;20255;-70
2023/05/29 05:23:11;;;;;;;5.97;3.65;;;;;;;16.99;nan;-18488.81;5034743;28;20179;-69
2023/05/29 05:25:38;;;;;;;4.75;3.15;;;;;;;16.07;nan;-17827.94;5035204;28;20285;-69
2023/05/29 05:28:04;;;;;;;4.97;3.42;;;;;;;17.11;nan;-17845.84;5034650;28;20266;-69
2023/05/29 05:30:31;;;;;;;5.38;3.33;;;;;;;17.38;nan;-17527.69;5035134;28;20168;-69
2023/05/29 05:32:58;;;;;;;6.88;5.20;;;;;;;17.41;nan;-17851.06;5034778;28;20728;-70
2023/05/29 05:35:24;;;;;;;6.07;4.60;;;;;;;17.55;nan;-16561.75;5034945;28;20160;-68
2023/05/29 05:37:49;;;;;;;4.22;2.90;;;;;;;17.69;nan;-14624.94;5034712;28;20573;-69
2023/05/29 05:40:15;;;;;;;6.32;3.30;;;;;;;17.91;nan;-14627.66;5034731;28;20578;-69
2023/05/29 05:42:41;;;;;;;5.70;3.92;;;;;;;17.88;nan;-14303.88;5034476;28;20182;-70
2023/05/29 05:45:07;;;;;;;4.97;3.05;;;;;;;18.33;nan;-11071.34;5034843;28;20221;-69
2023/05/29 05:47:33;;;;;;;6.25;3.10;;;;;;;18.47;nan;-13015.72;5034512;28;20270;-69
2023/05/29 05:49:58;;;;;;;4.30;3.10;;;;;;;18.53;nan;-7181.78;5033248;28;20671;-69
2023/05/29 05:52:25;;;;;;;6.30;3.83;;;;;;;18.81;nan;-7830.84;5034188;28;20171;-69
2023/05/29 05:54:51;;;;;;;6.25;3.05;;;;;;;18.62;nan;-10749.03;5034445;28;20203;-70
2023/05/29 05:57:17;;;;;;;4.85;2.88;;;;;;;18.57;nan;-10424.63;5034602;28;20199;-69
2023/05/29 05:59:42;;;;;;;4.95;2.83;;;;;;;18.72;nan;-7830.75;5034250;28;20238;-69
2023/05/29 06:02:07;;;;;;;5.22;3.15;;;;;;;18.75;nan;-4584.41;5033312;28;20258;-70
2023/05/29 06:04:33;;;;;;;4.18;3.08;;;;;;;18.71;nan;-6208.06;5033414;28;20589;-70
2023/05/29 06:06:59;;;;;;;5.13;2.97;;;;;;;19.02;nan;-4583.25;5034991;28;20187;-70
2023/05/29 06:09:25;;;;;;;5.72;2.95;;;;;;;18.97;nan;-1657.91;5034318;28;20172;-69
2023/05/29 06:11:50;;;;;;;4.13;2.88;;;;;;;19.19;nan;-1330.66;5034416;28;20266;-70
2023/05/29 06:14:16;;;;;;;4.57;2.92;;;;;;;19.58;nan;1604.38;5033204;28;20754;-70
2023/05/29 06:16:42;;;;;;;4.13;3.05;;;;;;;19.66;nan;3887.66;5034367;28;20172;-71
2023/05/29 06:19:08;;;;;;;4.00;2.92;;;;;;;20.26;nan;8471.75;5033544;28;20191;-66
2023/05/29 06:21:34;;;;;;;9.13;3.00;;;;;;;20.35;nan;15019.13;5033494;28;20159;-66
2023/05/29 06:23:59;;;;;;;4.55;2.63;;;;;;;20.60;nan;9788.91;5033937;28;20171;-65
2023/05/29 06:26:26;;;;;;;5.93;3.33;;;;;;;20.63;nan;21918.91;5034483;28;20637;-64
2023/05/29 06:28:52;;;;;;;5.47;3.15;;;;;;;20.76;nan;23896.38;5034167;28;20167;-65
2023/05/29 06:31:17;;;;;;;5.38;2.90;;;;;;;20.71;nan;16999.50;5034146;28;20201;-71
2023/05/29 06:33:44;;;;;;;7.53;3.70;;;;;;;20.57;nan;15682.63;5032948;28;20167;-72
2023/05/29 06:36:10;;;;;;;6.28;3.20;;;;;;;20.95;nan;19963.03;5031469;28;20175;-68
2023/05/29 06:38:36;;;;;;;7.10;2.95;;;;;;;20.23;nan;16980.66;5032850;28;20175;-68
2023/05/29 06:41:01;;;;;;;5.38;2.95;;;;;;;20.88;nan;18318.56;5033017;28;20167;-71
2023/05/29 06:43:28;;;;;;;7.65;3.25;;;;;;;20.91;nan;21603.25;5032463;28;20225;-69
2023/05/29 06:45:53;;;;;;;10.90;3.47;;;;;;;21.03;nan;17996.56;5032332;28;20195;-70
2023/05/29 06:48:19;;;;;;;4.88;3.13;;;;;;;21.49;nan;22288.19;5033616;28;20642;-70
2023/05/29 06:50:45;;;;;;;4.75;2.70;;;;;;;21.78;nan;28560.22;5033911;28;20206;-71
2023/05/29 06:53:10;;;;;;;5.53;2.90;;;;;;;22.08;nan;29566.91;5033871;28;20214;-69
2023/05/29 06:55:36;;;;;;;10.20;2.90;;;;;;;22.07;nan;42440.25;5033911;28;20638;-69
2023/05/29 06:58:01;;;;;;;5.78;2.90;;;;;;;21.66;nan;41112.03;5033819;28;20175;-68
2023/05/29 07:00:27;;;;;;;5.00;2.83;;;;;;;21.71;nan;46132.00;5032405;28;20234;-71
2023/05/29 07:02:53;;;;;;;4.35;2.85;;;;;;;21.63;nan;43131.44;5033784;28;20194;-71
2023/05/29 07:05:18;;;;;;;4.10;2.88;;;;;;;21.95;nan;46839.88;5033458;28;20702;-72
2023/05/29 07:07:44;;;;;;;6.05;3.10;;;;;;;22.46;nan;50521.47;5038165;28;20172;-71
2023/05/29 07:10:10;;;;;;;4.50;2.88;;;;;;;22.41;nan;49050.31;5033735;28;20199;-71
2023/05/29 07:12:35;;;;;;;4.15;2.63;;;;;;;22.05;nan;53733.47;5032352;28;20198;-71
2023/05/29 07:15:01;;;;;;;6.70;2.72;;;;;;;22.31;nan;53645.22;5033452;28;20642;-70
2023/05/29 07:17:26;;;;;;;3.67;2.60;;;;;;;22.43;nan;54060.38;5033630;28;20164;-69
2023/05/29 07:19:51;;;;;;;3.80;2.67;;;;;;;22.63;nan;54355.47;5032204;28;20708;-68
2023/05/29 07:22:17;;;;;;;4.70;2.63;;;;;;;22.15;nan;55886.28;5033328;28;20183;-68
2023/05/29 07:24:42;;;;;;;7.85;3.17;;;;;;;22.28;nan;57009.59;5033387;28;20215;-71
2023/05/29 07:27:08;;;;;;;4.07;2.72;;;;;;;22.56;nan;57493.78;5033500;28;20515;-70
2023/05/29 07:29:33;;;;;;;3.65;2.45;;;;;;;23.00;nan;58412.69;5033707;28;20182;-69
2023/05/29 07:31:58;;;;;;;4.18;2.67;;;;;;;22.92;nan;58052.09;5033310;28;20665;-69
2023/05/29 07:34:24;;;;;;;4.22;3.05;;;;;;;23.18;nan;58423.75;5032318;28;20171;-72
2023/05/29 07:37:00;;;;;;;5.47;3.10;;;;;;;23.28;nan;58937.31;5032764;28;20255;-73
2023/05/29 07:39:26;;;;;;;3.70;2.55;;;;;;;22.89;nan;59064.69;5033486;28;20178;-71
2023/05/29 07:41:52;;;;;;;6.15;3.67;;;;;;;22.59;nan;58036.00;5032877;28;20250;-68
2023/05/29 07:44:18;;;;;;;5.55;3.40;;;;;;;23.25;nan;58153.16;5031388;28;20180;-67
2023/05/29 07:46:43;;;;;;;6.07;3.40;;;;;;;23.31;nan;58818.09;5031687;28;20578;-70
2023/05/29 07:49:09;;;;;;;4.97;3.20;;;;;;;23.02;nan;58745.56;5032832;28;20175;-69
2023/05/29 07:51:34;;;;;;;5.93;3.67;;;;;;;23.26;nan;58562.59;5032977;28;20197;-67
2023/05/29 07:54:00;;;;;;;4.53;3.20;;;;;;;23.60;nan;58688.00;5032689;28;20237;-69
2023/05/29 07:56:25;;;;;;;5.55;3.47;;;;;;;23.34;nan;58577.03;5031606;28;20175;-72
2023/05/29 07:58:53;;;;;;;5.00;3.15;;;;;;;22.74;nan;60798.66;5033213;28;20163;-71
2023/05/29 08:01:19;;;;;;;5.90;3.70;;;;;;;22.98;nan;61252.25;5032700;28;20672;-69
2023/05/29 08:03:44;;;;;;;5.20;3.10;;;;;;;22.98;nan;61314.78;5032329;28;20200;-70
2023/05/29 08:06:10;;;;;;;4.63;3.10;;;;;;;23.55;nan;61560.44;5032523;28;20581;-67
2023/05/29 08:08:35;;;;;;;6.30;3.42;;;;;;;23.56;nan;61681.56;5036085;28;20175;-70
2023/05/29 08:11:01;;;;;;;5.03;3.10;;;;;;;23.47;nan;61703.25;5032763;28;20370;-72
2023/05/29 08:13:27;;;;;;;4.65;3.30;;;;;;;23.52;nan;61770.94;5032546;28;20194;-72
2023/05/29 08:15:52;;;;;;;3.95;2.83;;;;;;;23.75;nan;61844.00;5032466;28;20599;-70
2023/05/29 08:18:18;;;;;;;6.55;3.50;;;;;;;24.03;nan;61873.16;5031276;28;20637;-69
2023/05/29 08:20:44;;;;;;;4.93;3.15;;;;;;;23.64;nan;61847.16;5032361;28;20171;-68
2023/05/29 08:23:10;;;;;;;5.38;3.25;;;;;;;24.11;nan;61842.50;5032430;28;20313;-70
2023/05/29 08:25:35;;;;;;;5.47;3.13;;;;;;;24.11;nan;61976.22;5032431;28;20199;-69
2023/05/29 08:28:01;;;;;;;5.65;3.20;;;;;;;23.95;nan;61962.69;5032304;28;20172;-68
2023/05/29 08:30:26;;;;;;;5.35;3.00;;;;;;;24.12;nan;62010.75;5032576;28;20190;-72
2023/05/29 08:32:51;;;;;;;6.40;3.20;;;;;;;24.39;nan;62093.72;5031927;28;20647;-69
2023/05/29 08:35:17;;;;;;;4.47;2.67;;;;;;;24.22;nan;62157.38;5032139;28;20175;-71
2023/05/29 08:37:43;;;;;;;2.75;2.35;;;;;;;24.22;nan;62121.38;5030975;28;20552;-71
2023/05/29 08:40:10;;;;;;;5.43;2.33;;;;;;;24.56;nan;62115.09;5032403;28;20171;-69
2023/05/29 08:42:47;;;;;;;4.28;2.80;;;;;;;24.63;nan;62366.13;5032417;28;20186;-72
2023/05/29 08:45:14;;;;;;;3.38;2.40;;;;;;;24.81;nan;62161.88;5031908;28;20670;-71
2023/05/29 08:47:40;;;;;;;4.60;2.75;;;;;;;24.90;nan;62344.69;5031688;28;20187;-70
2023/05/29 08:50:07;;;;;;;4.05;2.67;;;;;;;25.01;nan;62200.38;5031902;28;20175;-72
2023/05/29 08:52:36;;;;;;;4.55;2.60;;;;;;;25.32;nan;62284.84;5030702;28;20175;-69
2023/05/29 08:55:01;;;;;;;3.78;2.70;;;;;;;;;;5031924;28;20172;-69
2023/05/29 08:57:29;;;;;;;4.05;3.03;;;;;;;25.46;nan;62230.16;5031845;28;20167;-71
2023/05/29 08:59:55;;;;;;;5.05;3.08;;;;;;;25.35;nan;62612.13;5031694;28;20248;-68
2023/05/29 09:02:21;;;;;;;8.52;2.92;;;;;;;25.38;nan;62433.00;5031549;28;20254;-70
2023/05/29 09:04:52;;;;;;;5.32;3.25;;;;;;;25.36;nan;62288.81;5031990;28;20232;-70
2023/05/29 09:07:19;;;;;;;5.10;2.58;;;;;;;25.18;nan;62559.22;5036117;28;20159;-67
2023/05/29 09:09:48;;;;;;;4.80;2.75;;;;;;;25.34;nan;62454.00;5032736;28;20575;-67
2023/05/29 09:12:14;;;;;;;4.68;3.00;;;;;;;25.57;nan;62352.09;5032196;28;20191;-72
2023/05/29 09:14:44;;;;;;;4.70;2.70;;;;;;;25.51;nan;62473.44;5031666;28;20175;-67
2023/05/29 09:17:11;;;;;;;3.60;2.63;;;;;;;25.00;nan;62262.00;5030218;28;20179;-70
2023/05/29 09:19:40;;;;;;;3.83;2.72;;;;;;;24.82;nan;62243.47;5031811;28;20186;-70
2023/05/29 09:22:11;;;;;;;6.07;2.90;;;;;;;24.53;nan;62294.59;5029822;28;20199;-71
2023/05/29 09:24:40;;;;;;;4.75;3.08;;;;;;;24.61;nan;62337.69;5031286;28;20174;-71
2023/05/29 09:27:07;;;;;;;3.97;2.63;;;;;;;24.55;nan;62226.88;5031244;28;20257;-70
2023/05/29 09:29:43;;;;;;;4.22;2.83;;;;;;;24.50;nan;62383.19;5031056;28;20255;-71
2023/05/29 09:32:10;;;;;;;4.15;2.65;;;;;;;24.36;nan;62189.00;5031275;28;20277;-71
2023/05/29 09:34:35;;;;;;;4.88;2.95;;;;;;;24.46;nan;62352.47;5031001;28;20195;-67
2023/05/29 09:37:09;;;;;;;6.43;2.88;;;;;;;24.73;nan;62325.28;5031210;28;20236;-69
2023/05/29 09:39:48;;;;;;;5.35;3.00;;;;;;;25.01;nan;62338.97;5029639;28;20182;-70
2023/05/29 09:42:14;;;;;;;5.30;2.17;;;;;;;25.14;nan;62261.13;5031038;28;20171;-70
2023/05/29 09:44:40;;;;;;;5.00;2.42;;;;;;;25.62;nan;62381.31;5031055;28;20187;-70
2023/05/29 09:47:06;;;;;;;5.60;2.70;;;;;;;25.64;nan;62369.97;5030929;28;20168;-70
2023/05/29 09:49:32;;;;;;;3.90;2.58;;;;;;;25.59;nan;62450.63;5030883;28;20551;-69
2023/05/29 09:52:01;;;;;;;3.53;2.50;;;;;;;25.92;nan;62509.31;5030509;28;20175;-70
2023/05/29 09:54:30;;;;;;;3.28;2.50;;;;;;;26.08;nan;62424.91;5030304;28;20197;-71
2023/05/29 09:56:57;;;;;;;4.45;2.70;;;;;;;26.04;nan;62405.16;5031317;28;20164;-69
2023/05/29 09:59:24;;;;;;;4.57;2.58;;;;;;;26.58;nan;62482.06;5032442;28;20171;-68
2023/05/29 10:02:01;;;;;;;3.83;2.42;;;;;;;26.95;nan;62571.03;5033873;28;20170;-70
2023/05/29 10:04:27;;;;;;;4.75;2.78;;;;;;;27.19;nan;62424.72;5034881;28;20167;-67
2023/05/29 10:06:52;;;;;;;3.55;2.50;;;;;;;;;;5038307;28;20629;-67
2023/05/29 10:09:21;;;;;;;4.28;2.80;;;;;;;27.44;nan;62633.84;5034035;28;20179;-68
2023/05/29 10:11:48;;;;;;;3.38;2.50;;;;;;;27.02;nan;62642.00;5035011;28;20206;-70
2023/05/29 10:14:22;;;;;;;3.65;2.28;;;;;;;27.35;nan;62739.03;5034559;28;20175;-70
2023/05/29 10:16:50;;;;;;;3.22;2.50;;;;;;;27.41;nan;62675.63;5034681;28;20165;-69
2023/05/29 10:19:24;;;;;;;4.65;2.88;;;;;;;27.63;nan;62685.09;5028760;28;20256;-71
2023/05/29 10:21:52;;;;;;;3.47;2.60;;;;;;;27.78;nan;62811.47;5034290;28;20695;-71
2023/05/29 10:24:18;;;;;;;4.85;2.70;;;;;;;27.80;nan;62908.91;5033238;28;20178;-69
2023/05/29 10:26:48;;;;;;;3.17;2.40;;;;;;;27.44;nan;62634.41;5033681;28;20661;-70
2023/05/29 10:29:33;;;;;;;3.08;2.13;;;;;;;27.56;nan;62716.44;5034826;28;20181;-70
2023/05/29 10:32:06;;;;;;;4.00;2.30;;;;;;;27.85;nan;62796.44;5034138;28;20171;-70
2023/05/29 10:34:56;;;;;;;4.05;2.83;;;;;;;27.77;nan;62797.19;5032983;28;20187;-72
2023/05/29 10:37:46;;;;;;;2.67;2.17;;;;;;;27.53;nan;62804.94;5034606;28;20266;-71
2023/05/29 10:40:12;;;;;;;2.67;2.10;;;;;;;27.79;nan;62773.78;5034054;28;20185;-69
2023/05/29 10:42:45;;;;;;;4.38;2.47;;;;;;;27.86;nan;62841.66;5032675;28;20194;-70
2023/05/29 10:45:31;;;;;;;4.25;2.53;;;;;;;27.91;nan;62771.78;5034148;28;20191;-70
2023/05/29 10:48:17;;;;;;;2.58;2.20;;;;;;;28.10;nan;62859.31;5033786;28;20174;-70
2023/05/29 10:50:45;;;;;;;3.33;2.28;;;;;;;27.88;nan;62902.34;5033202;28;20590;-69
2023/05/29 10:53:14;;;;;;;4.43;2.60;;;;;;;27.86;nan;62766.06;5033908;28;20171;-69
2023/05/29 10:55:41;;;;;;;5.22;2.50;;;;;;;28.03;nan;62767.16;5034011;28;20668;-71
2023/05/29 10:58:08;;;;;;;2.97;2.22;;;;;;;27.76;nan;62715.19;5033894;28;20175;-70
2023/05/29 11:00:41;;;;;;;4.32;2.63;;;;;;;27.61;nan;62929.09;5033954;28;20242;-68
2023/05/29 11:03:07;;;;;;;3.72;2.90;;;;;;;27.78;nan;62706.97;5033528;28;20167;-72
2023/05/29 11:05:33;;;;;;;4.40;2.30;;;;;;;27.19;nan;62716.59;5037433;28;20238;-71
2023/05/29 11:08:02;;;;;;;2.63;2.25;;;;;;;27.15;nan;62583.41;5034081;28;20167;-71
2023/05/29 11:10:52;;;;;;;3.75;2.50;;;;;;;27.34;nan;62735.28;5033347;28;20608;-70
2023/05/29 11:13:31;;;;;;;3.33;2.38;;;;;;;27.60;nan;62738.88;5032296;28;20182;-70
2023/05/29 11:16:09;;;;;;;3.38;2.35;;;;;;;27.91;nan;62811.19;5033353;28;20175;-69
2023/05/29 11:18:48;;;;;;;3.13;2.60;;;;;;;28.17;nan;62835.22;5033619;28;20258;-71
2023/05/29 11:21:39;;;;;;;3.90;2.38;;;;;;;28.42;nan;62889.66;5033541;28;20567;-70
2023/05/29 11:24:06;;;;;;;4.22;2.63;;;;;;;28.31;nan;62869.13;5032203;28;20187;-70
2023/05/29 11:26:32;;;;;;;5.80;2.42;;;;;;;28.41;nan;62862.22;5033348;28;20206;-71
2023/05/29 11:29:10;;;;;;;7.43;2.85;;;;;;;28.17;nan;62824.72;5033341;28;20175;-72
2023/05/29 11:31:39;;;;;;;3.70;2.38;;;;;;;27.41;nan;62693.44;5033414;28;20206;-71
2023/05/29 11:34:05;;;;;;;4.40;2.60;;;;;;;26.99;nan;62796.00;5033187;28;20163;-67
2023/05/29 11:36:33;;;;;;;3.13;2.33;;;;;;;26.38;nan;62648.47;5032927;28;20178;-71
2023/05/29 11:39:00;;;;;;;6.88;3.00;;;;;;;26.64;nan;62682.38;5033058;28;20183;-69
2023/05/29 11:41:26;;;;;;;4.88;2.78;;;;;;;27.00;nan;62696.88;5033116;28;20211;-73
2023/05/29 11:44:02;;;;;;;3.70;2.42;;;;;;;27.17;nan;62727.44;5033025;28;20595;-68
2023/05/29 11:46:32;;;;;;;4.15;2.75;;;;;;;27.54;nan;62755.63;5032915;28;20198;-68
2023/05/29 11:48:58;;;;;;;3.72;2.70;;;;;;;27.31;nan;62660.97;5032542;28;20171;-70